sensor_id;sensor_type;location;lat;lon;timestamp;P1;durP1;ratioP1;P2;durP2;ratioP2
16973;SDS011;8603;46.944;7.412;2023-04-24T00:00:18;0.70;;;0.70;;
16973;SDS011;8603;46.944;7.412;2023-04-24T00:02:47;0.60;;;0.60;;
16973;SDS011;8603;46.944;7.412;2023-04-24T00:05:24;0.80;;;0.63;;
16973;SDS011;8603;46.944;7.412;2023-04-24T00:08:13;0.77;;;0.70;;
16973;SDS011;8603;46.944;7.412;2023-04-24T00:10:48;0.50;;;0.50;;
16973;SDS011;8603;46.944;7.412;2023-04-24T00:13:19;1.70;;;0.60;;
16973;SDS011;8603;46.944;7.412;2023-04-24T00:15:44;0.53;;;0.53;;
16973;SDS011;8603;46.944;7.412;2023-04-24T00:18:21;0.60;;;0.60;;
16973;SDS011;8603;46.944;7.412;2023-04-24T00:20:50;0.67;;;0.60;;
16973;SDS011;8603;46.944;7.412;2023-04-24T00:23:24;0.60;;;0.60;;
16973;SDS011;8603;46.944;7.412;2023-04-24T00:25:59;0.60;;;0.60;;
16973;SDS011;8603;46.944;7.412;2023-04-24T00:28:40;0.60;;;0.60;;
16973;SDS011;8603;46.944;7.412;2023-04-24T00:31:06;0.73;;;0.60;;
16973;SDS011;8603;46.944;7.412;2023-04-24T00:33:48;0.50;;;0.50;;
16973;SDS011;8603;46.944;7.412;2023-04-24T00:36:19;0.50;;;0.50;;
16973;SDS011;8603;46.944;7.412;2023-04-24T00:38:50;0.60;;;0.60;;
16973;SDS011;8603;46.944;7.412;2023-04-24T00:41:15;0.57;;;0.57;;
16973;SDS011;8603;46.944;7.412;2023-04-24T00:43:51;0.73;;;0.73;;
16973;SDS011;8603;46.944;7.412;2023-04-24T00:46:22;0.60;;;0.60;;
16973;SDS011;8603;46.944;7.412;2023-04-24T00:48:47;0.43;;;0.43;;
16973;SDS011;8603;46.944;7.412;2023-04-24T00:54:18;0.40;;;0.40;;
16973;SDS011;8603;46.944;7.412;2023-04-24T01:00:07;1.60;;;0.60;;
16973;SDS011;8603;46.944;7.412;2023-04-24T01:02:40;0.83;;;0.73;;
16973;SDS011;8603;46.944;7.412;2023-04-24T01:05:28;0.50;;;0.50;;
16973;SDS011;8603;46.944;7.412;2023-04-24T01:11:38;0.67;;;0.67;;
16973;SDS011;8603;46.944;7.412;2023-04-24T01:17:49;0.50;;;0.50;;
16973;SDS011;8603;46.944;7.412;2023-04-24T01:26:27;0.60;;;0.60;;
16973;SDS011;8603;46.944;7.412;2023-04-24T01:29:13;0.57;;;0.57;;
16973;SDS011;8603;46.944;7.412;2023-04-24T01:31:49;0.50;;;0.50;;
16973;SDS011;8603;46.944;7.412;2023-04-24T01:41:18;0.73;;;0.60;;
16973;SDS011;8603;46.944;7.412;2023-04-24T01:43:51;0.50;;;0.50;;
16973;SDS011;8603;46.944;7.412;2023-04-24T01:46:26;0.97;;;0.50;;
16973;SDS011;8603;46.944;7.412;2023-04-24T01:48:52;0.83;;;0.60;;
16973;SDS011;8603;46.944;7.412;2023-04-24T01:51:18;1.40;;;0.60;;
16973;SDS011;8603;46.944;7.412;2023-04-24T01:53:44;0.93;;;0.70;;
16973;SDS011;8603;46.944;7.412;2023-04-24T01:56:10;0.60;;;0.60;;
16973;SDS011;8603;46.944;7.412;2023-04-24T01:58:36;1.30;;;0.53;;
16973;SDS011;8603;46.944;7.412;2023-04-24T02:01:02;0.40;;;0.40;;
16973;SDS011;8603;46.944;7.412;2023-04-24T02:03:36;0.47;;;0.47;;
16973;SDS011;8603;46.944;7.412;2023-04-24T02:06:15;0.50;;;0.50;;
16973;SDS011;8603;46.944;7.412;2023-04-24T02:08:41;0.53;;;0.53;;
16973;SDS011;8603;46.944;7.412;2023-04-24T02:11:08;0.60;;;0.60;;
16973;SDS011;8603;46.944;7.412;2023-04-24T02:13:34;0.50;;;0.50;;
16973;SDS011;8603;46.944;7.412;2023-04-24T02:16:00;0.50;;;0.50;;
16973;SDS011;8603;46.944;7.412;2023-04-24T02:18:29;0.50;;;0.50;;
16973;SDS011;8603;46.944;7.412;2023-04-24T02:20:55;0.50;;;0.50;;
16973;SDS011;8603;46.944;7.412;2023-04-24T02:23:20;0.47;;;0.47;;
16973;SDS011;8603;46.944;7.412;2023-04-24T02:25:46;0.40;;;0.40;;
16973;SDS011;8603;46.944;7.412;2023-04-24T02:28:12;0.60;;;0.50;;
16973;SDS011;8603;46.944;7.412;2023-04-24T02:30:37;0.50;;;0.50;;
16973;SDS011;8603;46.944;7.412;2023-04-24T02:33:03;0.50;;;0.50;;
16973;SDS011;8603;46.944;7.412;2023-04-24T02:35:32;0.40;;;0.40;;
16973;SDS011;8603;46.944;7.412;2023-04-24T02:38:00;0.57;;;0.57;;
16973;SDS011;8603;46.944;7.412;2023-04-24T02:40:26;0.80;;;0.40;;
16973;SDS011;8603;46.944;7.412;2023-04-24T02:43:00;0.50;;;0.50;;
16973;SDS011;8603;46.944;7.412;2023-04-24T02:45:26;0.47;;;0.47;;
16973;SDS011;8603;46.944;7.412;2023-04-24T02:50:49;0.47;;;0.47;;
16973;SDS011;8603;46.944;7.412;2023-04-24T02:53:18;0.47;;;0.47;;
16973;SDS011;8603;46.944;7.412;2023-04-24T02:55:47;0.67;;;0.50;;
16973;SDS011;8603;46.944;7.412;2023-04-24T02:58:13;0.60;;;0.60;;
16973;SDS011;8603;46.944;7.412;2023-04-24T03:00:46;0.40;;;0.40;;
16973;SDS011;8603;46.944;7.412;2023-04-24T03:03:33;0.50;;;0.50;;
16973;SDS011;8603;46.944;7.412;2023-04-24T03:06:09;0.50;;;0.50;;
16973;SDS011;8603;46.944;7.412;2023-04-24T03:08:38;0.40;;;0.40;;
16973;SDS011;8603;46.944;7.412;2023-04-24T03:11:25;0.43;;;0.43;;
16973;SDS011;8603;46.944;7.412;2023-04-24T03:14:09;0.47;;;0.47;;
16973;SDS011;8603;46.944;7.412;2023-04-24T03:17:01;0.40;;;0.40;;
16973;SDS011;8603;46.944;7.412;2023-04-24T03:22:43;0.57;;;0.57;;
16973;SDS011;8603;46.944;7.412;2023-04-24T03:25:14;0.50;;;0.50;;
16973;SDS011;8603;46.944;7.412;2023-04-24T03:27:40;0.43;;;0.43;;
16973;SDS011;8603;46.944;7.412;2023-04-24T03:30:06;0.57;;;0.57;;
16973;SDS011;8603;46.944;7.412;2023-04-24T03:32:33;2.70;;;0.87;;
16973;SDS011;8603;46.944;7.412;2023-04-24T03:34:58;0.60;;;0.60;;
16973;SDS011;8603;46.944;7.412;2023-04-24T03:37:24;0.73;;;0.60;;
16973;SDS011;8603;46.944;7.412;2023-04-24T03:39:51;0.70;;;0.60;;
16973;SDS011;8603;46.944;7.412;2023-04-24T03:42:17;0.70;;;0.67;;
16973;SDS011;8603;46.944;7.412;2023-04-24T03:44:42;0.63;;;0.63;;
16973;SDS011;8603;46.944;7.412;2023-04-24T03:47:08;0.50;;;0.50;;
16973;SDS011;8603;46.944;7.412;2023-04-24T03:49:34;0.60;;;0.60;;
16973;SDS011;8603;46.944;7.412;2023-04-24T03:51:59;0.90;;;0.60;;
16973;SDS011;8603;46.944;7.412;2023-04-24T03:54:25;0.70;;;0.70;;
16973;SDS011;8603;46.944;7.412;2023-04-24T03:56:51;0.83;;;0.67;;
16973;SDS011;8603;46.944;7.412;2023-04-24T03:59:16;0.60;;;0.60;;
16973;SDS011;8603;46.944;7.412;2023-04-24T04:01:42;1.43;;;0.80;;
16973;SDS011;8603;46.944;7.412;2023-04-24T04:04:08;0.70;;;0.70;;
16973;SDS011;8603;46.944;7.412;2023-04-24T04:06:35;0.80;;;0.80;;
16973;SDS011;8603;46.944;7.412;2023-04-24T04:09:01;0.63;;;0.63;;
16973;SDS011;8603;46.944;7.412;2023-04-24T04:11:27;1.00;;;1.00;;
16973;SDS011;8603;46.944;7.412;2023-04-24T04:13:52;0.70;;;0.70;;
16973;SDS011;8603;46.944;7.412;2023-04-24T04:16:18;0.70;;;0.70;;
16973;SDS011;8603;46.944;7.412;2023-04-24T04:18:44;0.97;;;0.80;;
16973;SDS011;8603;46.944;7.412;2023-04-24T04:21:10;0.70;;;0.70;;
16973;SDS011;8603;46.944;7.412;2023-04-24T04:23:39;0.70;;;0.70;;
16973;SDS011;8603;46.944;7.412;2023-04-24T04:26:05;2.20;;;0.80;;
16973;SDS011;8603;46.944;7.412;2023-04-24T04:28:34;1.03;;;0.80;;
16973;SDS011;8603;46.944;7.412;2023-04-24T04:31:00;1.47;;;0.80;;
16973;SDS011;8603;46.944;7.412;2023-04-24T04:33:25;0.87;;;0.83;;
16973;SDS011;8603;46.944;7.412;2023-04-24T04:35:51;1.30;;;1.00;;
16973;SDS011;8603;46.944;7.412;2023-04-24T04:38:35;1.47;;;1.00;;
16973;SDS011;8603;46.944;7.412;2023-04-24T04:41:05;0.90;;;0.90;;
16973;SDS011;8603;46.944;7.412;2023-04-24T04:43:33;0.90;;;0.90;;
16973;SDS011;8603;46.944;7.412;2023-04-24T04:46:05;1.90;;;1.00;;
16973;SDS011;8603;46.944;7.412;2023-04-24T04:48:52;0.80;;;0.80;;
16973;SDS011;8603;46.944;7.412;2023-04-24T04:51:24;0.80;;;0.80;;
16973;SDS011;8603;46.944;7.412;2023-04-24T04:54:02;2.20;;;1.00;;
16973;SDS011;8603;46.944;7.412;2023-04-24T04:56:28;1.10;;;1.00;;
16973;SDS011;8603;46.944;7.412;2023-04-24T05:02:04;1.20;;;1.10;;
16973;SDS011;8603;46.944;7.412;2023-04-24T05:04:35;1.70;;;0.80;;
16973;SDS011;8603;46.944;7.412;2023-04-24T05:07:04;0.80;;;0.80;;
16973;SDS011;8603;46.944;7.412;2023-04-24T05:09:42;0.80;;;0.80;;
16973;SDS011;8603;46.944;7.412;2023-04-24T05:12:42;2.20;;;1.13;;
16973;SDS011;8603;46.944;7.412;2023-04-24T05:15:14;0.90;;;0.90;;
16973;SDS011;8603;46.944;7.412;2023-04-24T05:17:56;1.10;;;1.00;;
16973;SDS011;8603;46.944;7.412;2023-04-24T05:20:50;1.43;;;1.10;;
16973;SDS011;8603;46.944;7.412;2023-04-24T05:23:16;1.00;;;0.93;;
16973;SDS011;8603;46.944;7.412;2023-04-24T05:26:19;1.33;;;1.20;;
16973;SDS011;8603;46.944;7.412;2023-04-24T05:28:45;1.30;;;1.10;;
16973;SDS011;8603;46.944;7.412;2023-04-24T05:31:11;0.97;;;0.90;;
16973;SDS011;8603;46.944;7.412;2023-04-24T05:33:40;2.90;;;0.93;;
16973;SDS011;8603;46.944;7.412;2023-04-24T05:36:11;1.80;;;0.90;;
16973;SDS011;8603;46.944;7.412;2023-04-24T05:39:08;1.93;;;0.83;;
16973;SDS011;8603;46.944;7.412;2023-04-24T05:41:34;1.10;;;1.00;;
16973;SDS011;8603;46.944;7.412;2023-04-24T05:44:06;1.37;;;1.03;;
16973;SDS011;8603;46.944;7.412;2023-04-24T05:49:10;1.37;;;0.80;;
16973;SDS011;8603;46.944;7.412;2023-04-24T05:51:45;1.20;;;1.10;;
16973;SDS011;8603;46.944;7.412;2023-04-24T05:54:13;1.60;;;0.80;;
16973;SDS011;8603;46.944;7.412;2023-04-24T05:56:42;1.20;;;0.87;;
16973;SDS011;8603;46.944;7.412;2023-04-24T05:59:37;1.53;;;1.03;;
16973;SDS011;8603;46.944;7.412;2023-04-24T06:02:13;1.07;;;0.90;;
16973;SDS011;8603;46.944;7.412;2023-04-24T06:04:42;3.33;;;0.77;;
16973;SDS011;8603;46.944;7.412;2023-04-24T06:07:10;1.70;;;0.83;;
16973;SDS011;8603;46.944;7.412;2023-04-24T06:09:36;1.95;;;0.82;;
16973;SDS011;8603;46.944;7.412;2023-04-24T06:12:06;0.97;;;0.80;;
16973;SDS011;8603;46.944;7.412;2023-04-24T06:14:35;1.90;;;1.07;;
16973;SDS011;8603;46.944;7.412;2023-04-24T06:17:03;0.68;;;0.68;;
16973;SDS011;8603;46.944;7.412;2023-04-24T06:19:29;1.02;;;1.00;;
16973;SDS011;8603;46.944;7.412;2023-04-24T06:21:55;0.90;;;0.70;;
16973;SDS011;8603;46.944;7.412;2023-04-24T06:24:21;1.17;;;0.80;;
16973;SDS011;8603;46.944;7.412;2023-04-24T06:26:46;1.27;;;0.90;;
16973;SDS011;8603;46.944;7.412;2023-04-24T06:29:12;0.77;;;0.77;;
16973;SDS011;8603;46.944;7.412;2023-04-24T06:31:38;0.70;;;0.70;;
16973;SDS011;8603;46.944;7.412;2023-04-24T06:34:03;1.42;;;0.80;;
16973;SDS011;8603;46.944;7.412;2023-04-24T06:36:29;1.08;;;0.90;;
16973;SDS011;8603;46.944;7.412;2023-04-24T06:38:56;0.88;;;0.88;;
16973;SDS011;8603;46.944;7.412;2023-04-24T06:41:22;0.90;;;0.90;;
16973;SDS011;8603;46.944;7.412;2023-04-24T06:43:47;0.80;;;0.80;;
16973;SDS011;8603;46.944;7.412;2023-04-24T06:46:13;1.02;;;0.90;;
16973;SDS011;8603;46.944;7.412;2023-04-24T06:48:39;1.48;;;0.80;;
16973;SDS011;8603;46.944;7.412;2023-04-24T06:51:04;1.73;;;0.85;;
16973;SDS011;8603;46.944;7.412;2023-04-24T06:53:30;1.25;;;0.95;;
16973;SDS011;8603;46.944;7.412;2023-04-24T06:55:59;2.30;;;0.90;;
16973;SDS011;8603;46.944;7.412;2023-04-24T06:58:25;3.85;;;1.05;;
16973;SDS011;8603;46.944;7.412;2023-04-24T07:00:51;1.67;;;1.10;;
16973;SDS011;8603;46.944;7.412;2023-04-24T07:03:16;1.20;;;1.10;;
16973;SDS011;8603;46.944;7.412;2023-04-24T07:05:42;0.90;;;0.90;;
16973;SDS011;8603;46.944;7.412;2023-04-24T07:08:08;1.02;;;1.00;;
16973;SDS011;8603;46.944;7.412;2023-04-24T07:10:36;1.05;;;0.95;;
16973;SDS011;8603;46.944;7.412;2023-04-24T07:13:02;1.45;;;1.05;;
16973;SDS011;8603;46.944;7.412;2023-04-24T07:15:27;2.15;;;1.27;;
16973;SDS011;8603;46.944;7.412;2023-04-24T07:17:53;4.32;;;1.00;;
16973;SDS011;8603;46.944;7.412;2023-04-24T07:20:18;1.02;;;0.90;;
16973;SDS011;8603;46.944;7.412;2023-04-24T07:22:44;1.33;;;0.90;;
16973;SDS011;8603;46.944;7.412;2023-04-24T07:25:10;1.83;;;1.10;;
16973;SDS011;8603;46.944;7.412;2023-04-24T07:27:35;1.83;;;1.10;;
16973;SDS011;8603;46.944;7.412;2023-04-24T07:30:02;2.15;;;1.27;;
16973;SDS011;8603;46.944;7.412;2023-04-24T07:32:28;1.55;;;0.98;;
16973;SDS011;8603;46.944;7.412;2023-04-24T07:34:54;3.20;;;1.10;;
16973;SDS011;8603;46.944;7.412;2023-04-24T07:37:20;1.63;;;1.20;;
16973;SDS011;8603;46.944;7.412;2023-04-24T07:39:46;1.52;;;1.10;;
16973;SDS011;8603;46.944;7.412;2023-04-24T07:42:11;1.08;;;0.98;;
16973;SDS011;8603;46.944;7.412;2023-04-24T07:44:37;2.22;;;1.15;;
16973;SDS011;8603;46.944;7.412;2023-04-24T07:47:03;2.45;;;1.38;;
16973;SDS011;8603;46.944;7.412;2023-04-24T07:49:47;1.30;;;1.20;;
16973;SDS011;8603;46.944;7.412;2023-04-24T07:52:12;2.53;;;1.30;;
16973;SDS011;8603;46.944;7.412;2023-04-24T07:54:40;1.52;;;1.20;;
16973;SDS011;8603;46.944;7.412;2023-04-24T07:57:07;1.30;;;1.20;;
16973;SDS011;8603;46.944;7.412;2023-04-24T07:59:33;2.10;;;1.23;;
16973;SDS011;8603;46.944;7.412;2023-04-24T08:02:01;3.42;;;1.20;;
16973;SDS011;8603;46.944;7.412;2023-04-24T08:04:27;2.47;;;1.42;;
16973;SDS011;8603;46.944;7.412;2023-04-24T08:06:52;1.52;;;1.10;;
16973;SDS011;8603;46.944;7.412;2023-04-24T08:09:21;2.45;;;1.20;;
16973;SDS011;8603;46.944;7.412;2023-04-24T08:11:49;3.47;;;1.40;;
16973;SDS011;8603;46.944;7.412;2023-04-24T08:14:22;2.53;;;1.23;;
16973;SDS011;8603;46.944;7.412;2023-04-24T08:16:48;1.53;;;1.00;;
16973;SDS011;8603;46.944;7.412;2023-04-24T08:19:16;2.20;;;1.43;;
16973;SDS011;8603;46.944;7.412;2023-04-24T08:21:51;3.43;;;1.50;;
16973;SDS011;8603;46.944;7.412;2023-04-24T08:24:17;1.33;;;1.23;;
16973;SDS011;8603;46.944;7.412;2023-04-24T08:26:42;3.47;;;1.37;;
16973;SDS011;8603;46.944;7.412;2023-04-24T08:29:10;1.77;;;1.30;;
16973;SDS011;8603;46.944;7.412;2023-04-24T08:31:49;2.50;;;1.30;;
16973;SDS011;8603;46.944;7.412;2023-04-24T08:34:33;1.90;;;1.30;;
16973;SDS011;8603;46.944;7.412;2023-04-24T08:37:11;4.47;;;1.23;;
16973;SDS011;8603;46.944;7.412;2023-04-24T08:39:44;1.90;;;1.30;;
16973;SDS011;8603;46.944;7.412;2023-04-24T08:45:32;1.45;;;1.27;;
16973;SDS011;8603;46.944;7.412;2023-04-24T08:51:20;5.55;;;1.40;;
16973;SDS011;8603;46.944;7.412;2023-04-24T08:53:56;3.05;;;1.30;;
16973;SDS011;8603;46.944;7.412;2023-04-24T08:56:59;2.83;;;1.40;;
16973;SDS011;8603;46.944;7.412;2023-04-24T08:59:59;1.80;;;1.30;;
16973;SDS011;8603;46.944;7.412;2023-04-24T09:03:04;1.40;;;1.30;;
16973;SDS011;8603;46.944;7.412;2023-04-24T09:05:46;1.83;;;1.38;;
16973;SDS011;8603;46.944;7.412;2023-04-24T09:08:25;3.63;;;1.25;;
16973;SDS011;8603;46.944;7.412;2023-04-24T09:11:12;2.90;;;1.30;;
16973;SDS011;8603;46.944;7.412;2023-04-24T09:13:41;3.67;;;1.40;;
16973;SDS011;8603;46.944;7.412;2023-04-24T09:16:10;2.50;;;1.30;;
16973;SDS011;8603;46.944;7.412;2023-04-24T09:18:36;5.05;;;1.23;;
16973;SDS011;8603;46.944;7.412;2023-04-24T09:21:09;2.30;;;1.40;;
16973;SDS011;8603;46.944;7.412;2023-04-24T09:23:38;4.03;;;1.50;;
16973;SDS011;8603;46.944;7.412;2023-04-24T09:26:04;1.98;;;1.38;;
16973;SDS011;8603;46.944;7.412;2023-04-24T09:28:42;2.60;;;1.35;;
16973;SDS011;8603;46.944;7.412;2023-04-24T09:31:12;5.07;;;1.20;;
16973;SDS011;8603;46.944;7.412;2023-04-24T09:33:57;1.87;;;1.10;;
16973;SDS011;8603;46.944;7.412;2023-04-24T09:36:40;4.10;;;1.33;;
16973;SDS011;8603;46.944;7.412;2023-04-24T09:39:11;3.10;;;1.65;;
16973;SDS011;8603;46.944;7.412;2023-04-24T09:41:45;2.63;;;1.27;;
16973;SDS011;8603;46.944;7.412;2023-04-24T09:47:36;1.63;;;1.27;;
16973;SDS011;8603;46.944;7.412;2023-04-24T09:50:14;1.70;;;1.07;;
16973;SDS011;8603;46.944;7.412;2023-04-24T09:53:05;3.77;;;1.40;;
16973;SDS011;8603;46.944;7.412;2023-04-24T09:55:46;1.20;;;1.10;;
16973;SDS011;8603;46.944;7.412;2023-04-24T09:58:18;1.48;;;1.30;;
16973;SDS011;8603;46.944;7.412;2023-04-24T10:07:14;1.88;;;1.20;;
16973;SDS011;8603;46.944;7.412;2023-04-24T10:09:49;1.35;;;1.13;;
16973;SDS011;8603;46.944;7.412;2023-04-24T10:12:19;2.03;;;1.50;;
16973;SDS011;8603;46.944;7.412;2023-04-24T10:14:57;2.45;;;1.20;;
16973;SDS011;8603;46.944;7.412;2023-04-24T10:17:49;4.15;;;1.65;;
16973;SDS011;8603;46.944;7.412;2023-04-24T10:20:32;1.40;;;1.10;;
16973;SDS011;8603;46.944;7.412;2023-04-24T10:25:53;1.52;;;1.35;;
16973;SDS011;8603;46.944;7.412;2023-04-24T10:28:44;1.45;;;1.05;;
16973;SDS011;8603;46.944;7.412;2023-04-24T10:31:31;2.95;;;1.48;;
16973;SDS011;8603;46.944;7.412;2023-04-24T10:34:01;2.95;;;1.30;;
16973;SDS011;8603;46.944;7.412;2023-04-24T10:36:36;1.30;;;1.20;;
16973;SDS011;8603;46.944;7.412;2023-04-24T10:39:36;1.70;;;1.20;;
16973;SDS011;8603;46.944;7.412;2023-04-24T10:42:20;2.13;;;1.33;;
16973;SDS011;8603;46.944;7.412;2023-04-24T10:44:48;1.98;;;1.27;;
16973;SDS011;8603;46.944;7.412;2023-04-24T10:50:46;2.97;;;1.17;;
16973;SDS011;8603;46.944;7.412;2023-04-24T10:53:59;2.25;;;1.45;;
16973;SDS011;8603;46.944;7.412;2023-04-24T10:59:45;1.95;;;1.20;;
16973;SDS011;8603;46.944;7.412;2023-04-24T11:02:15;2.47;;;1.40;;
16973;SDS011;8603;46.944;7.412;2023-04-24T11:04:42;2.60;;;1.40;;
16973;SDS011;8603;46.944;7.412;2023-04-24T11:07:08;1.45;;;1.13;;
16973;SDS011;8603;46.944;7.412;2023-04-24T11:09:35;2.60;;;1.30;;
16973;SDS011;8603;46.944;7.412;2023-04-24T11:12:05;2.67;;;1.40;;
16973;SDS011;8603;46.944;7.412;2023-04-24T11:17:28;2.78;;;1.40;;
16973;SDS011;8603;46.944;7.412;2023-04-24T11:20:07;1.35;;;1.08;;
16973;SDS011;8603;46.944;7.412;2023-04-24T11:22:35;3.47;;;1.40;;
16973;SDS011;8603;46.944;7.412;2023-04-24T11:25:06;2.92;;;1.30;;
16973;SDS011;8603;46.944;7.412;2023-04-24T11:27:38;1.20;;;1.10;;
16973;SDS011;8603;46.944;7.412;2023-04-24T11:30:06;3.30;;;1.52;;
16973;SDS011;8603;46.944;7.412;2023-04-24T11:32:39;2.35;;;1.13;;
16973;SDS011;8603;46.944;7.412;2023-04-24T11:35:19;1.85;;;1.15;;
16973;SDS011;8603;46.944;7.412;2023-04-24T11:37:47;2.53;;;1.40;;
16973;SDS011;8603;46.944;7.412;2023-04-24T11:40:15;1.93;;;1.50;;
16973;SDS011;8603;46.944;7.412;2023-04-24T11:42:43;1.80;;;1.03;;
16973;SDS011;8603;46.944;7.412;2023-04-24T11:45:13;1.40;;;1.10;;
16973;SDS011;8603;46.944;7.412;2023-04-24T11:47:41;1.47;;;1.17;;
16973;SDS011;8603;46.944;7.412;2023-04-24T11:50:08;3.37;;;1.47;;
16973;SDS011;8603;46.944;7.412;2023-04-24T11:52:43;2.37;;;1.40;;
16973;SDS011;8603;46.944;7.412;2023-04-24T11:57:39;2.13;;;1.40;;
16973;SDS011;8603;46.944;7.412;2023-04-24T12:00:14;4.30;;;1.60;;
16973;SDS011;8603;46.944;7.412;2023-04-24T12:02:44;1.73;;;0.97;;
16973;SDS011;8603;46.944;7.412;2023-04-24T12:05:23;1.90;;;1.20;;
16973;SDS011;8603;46.944;7.412;2023-04-24T12:07:50;2.83;;;1.20;;
16973;SDS011;8603;46.944;7.412;2023-04-24T12:10:21;1.97;;;1.40;;
16973;SDS011;8603;46.944;7.412;2023-04-24T12:12:55;2.07;;;1.47;;
16973;SDS011;8603;46.944;7.412;2023-04-24T12:15:22;2.17;;;1.43;;
16973;SDS011;8603;46.944;7.412;2023-04-24T12:17:50;1.93;;;1.20;;
16973;SDS011;8603;46.944;7.412;2023-04-24T12:20:16;1.30;;;1.10;;
16973;SDS011;8603;46.944;7.412;2023-04-24T12:22:51;1.50;;;1.33;;
16973;SDS011;8603;46.944;7.412;2023-04-24T12:25:20;2.47;;;1.50;;
16973;SDS011;8603;46.944;7.412;2023-04-24T12:30:28;1.73;;;1.23;;
16973;SDS011;8603;46.944;7.412;2023-04-24T12:32:56;1.70;;;1.10;;
16973;SDS011;8603;46.944;7.412;2023-04-24T12:35:25;1.97;;;1.20;;
16973;SDS011;8603;46.944;7.412;2023-04-24T12:37:55;2.13;;;1.10;;
16973;SDS011;8603;46.944;7.412;2023-04-24T12:40:33;2.73;;;1.20;;
16973;SDS011;8603;46.944;7.412;2023-04-24T12:43:26;1.20;;;1.10;;
16973;SDS011;8603;46.944;7.412;2023-04-24T12:46:30;1.13;;;1.00;;
16973;SDS011;8603;46.944;7.412;2023-04-24T12:49:15;2.20;;;1.20;;
16973;SDS011;8603;46.944;7.412;2023-04-24T12:52:14;1.53;;;1.10;;
16973;SDS011;8603;46.944;7.412;2023-04-24T12:54:57;1.90;;;1.35;;
16973;SDS011;8603;46.944;7.412;2023-04-24T12:57:34;2.20;;;1.13;;
16973;SDS011;8603;46.944;7.412;2023-04-24T13:00:26;1.88;;;1.20;;
16973;SDS011;8603;46.944;7.412;2023-04-24T13:02:58;1.80;;;1.20;;
16973;SDS011;8603;46.944;7.412;2023-04-24T13:05:26;1.27;;;1.10;;
16973;SDS011;8603;46.944;7.412;2023-04-24T13:07:53;2.22;;;1.17;;
16973;SDS011;8603;46.944;7.412;2023-04-24T13:10:47;1.30;;;1.20;;
16973;SDS011;8603;46.944;7.412;2023-04-24T13:13:41;1.38;;;1.10;;
16973;SDS011;8603;46.944;7.412;2023-04-24T13:16:10;3.13;;;1.33;;
16973;SDS011;8603;46.944;7.412;2023-04-24T13:18:38;1.75;;;1.05;;
16973;SDS011;8603;46.944;7.412;2023-04-24T13:21:26;3.53;;;1.25;;
16973;SDS011;8603;46.944;7.412;2023-04-24T13:24:23;1.85;;;1.17;;
16973;SDS011;8603;46.944;7.412;2023-04-24T13:27:49;1.35;;;1.20;;
16973;SDS011;8603;46.944;7.412;2023-04-24T13:30:38;1.30;;;1.10;;
16973;SDS011;8603;46.944;7.412;2023-04-24T13:33:07;2.40;;;1.52;;
16973;SDS011;8603;46.944;7.412;2023-04-24T13:41:44;1.48;;;1.38;;
16973;SDS011;8603;46.944;7.412;2023-04-24T13:44:15;2.00;;;1.23;;
16973;SDS011;8603;46.944;7.412;2023-04-24T13:47:03;1.48;;;1.10;;
16973;SDS011;8603;46.944;7.412;2023-04-24T13:49:38;1.97;;;1.30;;
16973;SDS011;8603;46.944;7.412;2023-04-24T13:52:03;2.67;;;1.23;;
16973;SDS011;8603;46.944;7.412;2023-04-24T13:54:29;1.83;;;1.30;;
16973;SDS011;8603;46.944;7.412;2023-04-24T13:56:57;2.08;;;1.15;;
16973;SDS011;8603;46.944;7.412;2023-04-24T13:59:26;1.20;;;1.10;;
16973;SDS011;8603;46.944;7.412;2023-04-24T14:01:51;1.47;;;1.20;;
16973;SDS011;8603;46.944;7.412;2023-04-24T14:04:17;1.25;;;1.15;;
16973;SDS011;8603;46.944;7.412;2023-04-24T14:06:43;2.50;;;1.20;;
16973;SDS011;8603;46.944;7.412;2023-04-24T14:09:14;1.90;;;1.20;;
16973;SDS011;8603;46.944;7.412;2023-04-24T14:11:48;1.98;;;1.20;;
16973;SDS011;8603;46.944;7.412;2023-04-24T14:14:24;1.30;;;1.20;;
16973;SDS011;8603;46.944;7.412;2023-04-24T14:16:52;1.63;;;1.30;;
16973;SDS011;8603;46.944;7.412;2023-04-24T14:19:35;1.25;;;1.15;;
16973;SDS011;8603;46.944;7.412;2023-04-24T14:22:01;1.43;;;1.33;;
16973;SDS011;8603;46.944;7.412;2023-04-24T14:24:32;1.20;;;1.13;;
16973;SDS011;8603;46.944;7.412;2023-04-24T14:27:06;1.65;;;1.15;;
16973;SDS011;8603;46.944;7.412;2023-04-24T14:32:51;1.60;;;1.33;;
16973;SDS011;8603;46.944;7.412;2023-04-24T14:44:41;2.47;;;1.37;;
16973;SDS011;8603;46.944;7.412;2023-04-24T14:50:13;3.43;;;1.20;;
16973;SDS011;8603;46.944;7.412;2023-04-24T14:53:01;1.33;;;1.23;;
16973;SDS011;8603;46.944;7.412;2023-04-24T14:55:33;1.90;;;1.23;;
16973;SDS011;8603;46.944;7.412;2023-04-24T14:58:02;2.73;;;1.20;;
16973;SDS011;8603;46.944;7.412;2023-04-24T15:00:35;1.43;;;1.27;;
16973;SDS011;8603;46.944;7.412;2023-04-24T15:03:16;1.30;;;1.20;;
16973;SDS011;8603;46.944;7.412;2023-04-24T15:05:56;1.87;;;1.30;;
16973;SDS011;8603;46.944;7.412;2023-04-24T15:08:23;1.73;;;1.23;;
16973;SDS011;8603;46.944;7.412;2023-04-24T15:10:49;2.40;;;1.20;;
16973;SDS011;8603;46.944;7.412;2023-04-24T15:13:15;1.63;;;1.40;;
16973;SDS011;8603;46.944;7.412;2023-04-24T15:15:45;2.90;;;1.30;;
16973;SDS011;8603;46.944;7.412;2023-04-24T15:18:12;1.20;;;1.10;;
16973;SDS011;8603;46.944;7.412;2023-04-24T15:20:37;1.40;;;1.20;;
16973;SDS011;8603;46.944;7.412;2023-04-24T15:23:07;1.87;;;1.30;;
16973;SDS011;8603;46.944;7.412;2023-04-24T15:25:42;1.37;;;1.20;;
16973;SDS011;8603;46.944;7.412;2023-04-24T15:28:09;2.67;;;1.20;;
16973;SDS011;8603;46.944;7.412;2023-04-24T15:30:34;3.47;;;1.63;;
16973;SDS011;8603;46.944;7.412;2023-04-24T15:33:00;3.20;;;1.20;;
16973;SDS011;8603;46.944;7.412;2023-04-24T15:35:26;2.43;;;1.20;;
16973;SDS011;8603;46.944;7.412;2023-04-24T15:37:52;1.37;;;1.00;;
16973;SDS011;8603;46.944;7.412;2023-04-24T15:40:18;2.10;;;1.50;;
16973;SDS011;8603;46.944;7.412;2023-04-24T15:42:44;1.60;;;1.30;;
16973;SDS011;8603;46.944;7.412;2023-04-24T15:45:10;2.83;;;1.30;;
16973;SDS011;8603;46.944;7.412;2023-04-24T15:47:39;1.37;;;1.27;;
16973;SDS011;8603;46.944;7.412;2023-04-24T15:50:05;2.53;;;1.40;;
16973;SDS011;8603;46.944;7.412;2023-04-24T15:52:33;2.37;;;1.10;;
16973;SDS011;8603;46.944;7.412;2023-04-24T15:55:02;3.00;;;1.30;;
16973;SDS011;8603;46.944;7.412;2023-04-24T15:57:34;2.07;;;1.40;;
16973;SDS011;8603;46.944;7.412;2023-04-24T16:00:01;2.20;;;1.47;;
16973;SDS011;8603;46.944;7.412;2023-04-24T16:02:30;2.30;;;1.47;;
16973;SDS011;8603;46.944;7.412;2023-04-24T16:04:56;2.50;;;1.30;;
16973;SDS011;8603;46.944;7.412;2023-04-24T16:07:25;3.73;;;1.43;;
16973;SDS011;8603;46.944;7.412;2023-04-24T16:10:17;2.00;;;1.30;;
16973;SDS011;8603;46.944;7.412;2023-04-24T16:12:56;2.63;;;1.30;;
16973;SDS011;8603;46.944;7.412;2023-04-24T16:15:22;2.43;;;1.60;;
16973;SDS011;8603;46.944;7.412;2023-04-24T16:17:51;1.80;;;1.50;;
16973;SDS011;8603;46.944;7.412;2023-04-24T16:20:22;2.90;;;1.60;;
16973;SDS011;8603;46.944;7.412;2023-04-24T16:23:21;2.60;;;1.73;;
16973;SDS011;8603;46.944;7.412;2023-04-24T16:25:56;1.47;;;1.33;;
16973;SDS011;8603;46.944;7.412;2023-04-24T16:28:42;2.03;;;1.33;;
16973;SDS011;8603;46.944;7.412;2023-04-24T16:31:07;2.57;;;1.23;;
16973;SDS011;8603;46.944;7.412;2023-04-24T16:33:38;4.20;;;1.67;;
16973;SDS011;8603;46.944;7.412;2023-04-24T16:36:11;3.60;;;1.80;;
16973;SDS011;8603;46.944;7.412;2023-04-24T16:38:37;3.10;;;1.67;;
16973;SDS011;8603;46.944;7.412;2023-04-24T16:41:03;3.47;;;1.90;;
16973;SDS011;8603;46.944;7.412;2023-04-24T16:43:38;1.83;;;1.47;;
16973;SDS011;8603;46.944;7.412;2023-04-24T16:46:03;2.67;;;1.40;;
16973;SDS011;8603;46.944;7.412;2023-04-24T16:48:32;2.30;;;1.63;;
16973;SDS011;8603;46.944;7.412;2023-04-24T16:50:59;5.40;;;1.80;;
16973;SDS011;8603;46.944;7.412;2023-04-24T16:53:24;2.73;;;1.50;;
16973;SDS011;8603;46.944;7.412;2023-04-24T16:55:50;2.30;;;1.77;;
16973;SDS011;8603;46.944;7.412;2023-04-24T16:58:16;4.00;;;2.03;;
16973;SDS011;8603;46.944;7.412;2023-04-24T17:00:42;1.77;;;1.67;;
16973;SDS011;8603;46.944;7.412;2023-04-24T17:03:08;3.63;;;1.80;;